sensor_id;sensor_type;location;lat;lon;timestamp;temperature;humidity
70456;DHT22;57916;51.996;5.180;2023-08-01T00:00:12;20.70;78.30
70456;DHT22;57916;51.996;5.180;2023-08-01T00:02:40;20.70;78.30
70456;DHT22;57916;51.996;5.180;2023-08-01T00:05:10;20.70;78.40
70456;DHT22;57916;51.996;5.180;2023-08-01T00:07:37;20.80;78.40
70456;DHT22;57916;51.996;5.180;2023-08-01T00:10:04;20.80;78.40
70456;DHT22;57916;51.996;5.180;2023-08-01T00:12:32;20.80;78.60
70456;DHT22;57916;51.996;5.180;2023-08-01T00:14:59;20.80;78.60
70456;DHT22;57916;51.996;5.180;2023-08-01T00:17:27;20.80;78.70
70456;DHT22;57916;51.996;5.180;2023-08-01T00:19:54;20.80;78.90
70456;DHT22;57916;51.996;5.180;2023-08-01T00:22:22;20.80;79.10
70456;DHT22;57916;51.996;5.180;2023-08-01T00:24:49;20.80;79.20
70456;DHT22;57916;51.996;5.180;2023-08-01T00:27:16;20.80;79.20
70456;DHT22;57916;51.996;5.180;2023-08-01T00:29:43;20.80;79.10
70456;DHT22;57916;51.996;5.180;2023-08-01T00:32:10;20.80;79.10
70456;DHT22;57916;51.996;5.180;2023-08-01T00:34:38;20.80;79.00
70456;DHT22;57916;51.996;5.180;2023-08-01T00:37:05;20.80;78.80
70456;DHT22;57916;51.996;5.180;2023-08-01T00:39:32;20.80;78.70
70456;DHT22;57916;51.996;5.180;2023-08-01T00:41:59;20.80;78.70
70456;DHT22;57916;51.996;5.180;2023-08-01T00:44:26;20.80;78.80
70456;DHT22;57916;51.996;5.180;2023-08-01T00:46:53;20.80;79.70
70456;DHT22;57916;51.996;5.180;2023-08-01T00:49:21;20.70;78.80
70456;DHT22;57916;51.996;5.180;2023-08-01T00:51:48;20.80;78.90
70456;DHT22;57916;51.996;5.180;2023-08-01T00:54:15;20.80;78.70
70456;DHT22;57916;51.996;5.180;2023-08-01T00:56:43;20.70;78.60
70456;DHT22;57916;51.996;5.180;2023-08-01T00:59:12;20.80;78.60
70456;DHT22;57916;51.996;5.180;2023-08-01T01:01:40;20.80;78.50
70456;DHT22;57916;51.996;5.180;2023-08-01T01:04:08;20.80;78.60
70456;DHT22;57916;51.996;5.180;2023-08-01T01:06:47;20.80;78.40
70456;DHT22;57916;51.996;5.180;2023-08-01T01:09:19;20.80;78.50
70456;DHT22;57916;51.996;5.180;2023-08-01T01:11:47;20.70;78.60
70456;DHT22;57916;51.996;5.180;2023-08-01T01:14:13;20.60;78.40
70456;DHT22;57916;51.996;5.180;2023-08-01T01:16:41;20.70;78.60
70456;DHT22;57916;51.996;5.180;2023-08-01T01:19:09;20.60;78.50
70456;DHT22;57916;51.996;5.180;2023-08-01T01:21:38;20.60;78.50
70456;DHT22;57916;51.996;5.180;2023-08-01T01:24:08;20.60;78.40
70456;DHT22;57916;51.996;5.180;2023-08-01T01:26:37;20.60;78.40
70456;DHT22;57916;51.996;5.180;2023-08-01T01:29:06;20.50;78.40
70456;DHT22;57916;51.996;5.180;2023-08-01T01:31:36;20.50;78.40
70456;DHT22;57916;51.996;5.180;2023-08-01T01:34:04;20.50;78.20
70456;DHT22;57916;51.996;5.180;2023-08-01T01:36:31;20.50;78.20
70456;DHT22;57916;51.996;5.180;2023-08-01T01:38:58;20.40;78.10
70456;DHT22;57916;51.996;5.180;2023-08-01T01:41:25;20.30;78.20
70456;DHT22;57916;51.996;5.180;2023-08-01T01:43:52;20.30;78.20
70456;DHT22;57916;51.996;5.180;2023-08-01T01:46:19;20.30;78.20
70456;DHT22;57916;51.996;5.180;2023-08-01T01:48:46;20.30;78.10
70456;DHT22;57916;51.996;5.180;2023-08-01T01:51:14;20.30;78.10
70456;DHT22;57916;51.996;5.180;2023-08-01T01:53:41;20.30;77.90
70456;DHT22;57916;51.996;5.180;2023-08-01T01:56:08;20.30;77.30
70456;DHT22;57916;51.996;5.180;2023-08-01T01:58:36;20.20;77.20
70456;DHT22;57916;51.996;5.180;2023-08-01T02:01:03;20.10;77.50
70456;DHT22;57916;51.996;5.180;2023-08-01T02:03:30;20.10;78.00
70456;DHT22;57916;51.996;5.180;2023-08-01T02:05:58;20.10;78.40
70456;DHT22;57916;51.996;5.180;2023-08-01T02:08:25;20.00;78.70
70456;DHT22;57916;51.996;5.180;2023-08-01T02:10:52;20.00;79.00
70456;DHT22;57916;51.996;5.180;2023-08-01T02:13:19;20.00;79.30
70456;DHT22;57916;51.996;5.180;2023-08-01T02:15:46;20.00;79.60
70456;DHT22;57916;51.996;5.180;2023-08-01T02:18:13;20.00;79.90
70456;DHT22;57916;51.996;5.180;2023-08-01T02:20:42;20.00;80.20
70456;DHT22;57916;51.996;5.180;2023-08-01T02:23:09;20.00;80.20
70456;DHT22;57916;51.996;5.180;2023-08-01T02:25:40;20.00;80.40
70456;DHT22;57916;51.996;5.180;2023-08-01T02:28:08;20.00;80.50
70456;DHT22;57916;51.996;5.180;2023-08-01T02:30:36;20.00;80.60
70456;DHT22;57916;51.996;5.180;2023-08-01T02:33:05;20.10;80.60
70456;DHT22;57916;51.996;5.180;2023-08-01T02:35:32;20.10;80.50
70456;DHT22;57916;51.996;5.180;2023-08-01T02:37:59;20.10;80.30
70456;DHT22;57916;51.996;5.180;2023-08-01T02:40:26;20.00;81.40
70456;DHT22;57916;51.996;5.180;2023-08-01T02:42:53;20.00;80.30
70456;DHT22;57916;51.996;5.180;2023-08-01T02:45:21;20.00;80.30
70456;DHT22;57916;51.996;5.180;2023-08-01T02:47:48;20.10;80.30
70456;DHT22;57916;51.996;5.180;2023-08-01T02:50:16;20.00;80.20
70456;DHT22;57916;51.996;5.180;2023-08-01T02:52:43;20.00;80.30
70456;DHT22;57916;51.996;5.180;2023-08-01T02:55:10;20.00;80.30
70456;DHT22;57916;51.996;5.180;2023-08-01T02:57:37;20.00;80.40
70456;DHT22;57916;51.996;5.180;2023-08-01T03:00:05;20.10;80.30
70456;DHT22;57916;51.996;5.180;2023-08-01T03:02:33;20.10;80.10
70456;DHT22;57916;51.996;5.180;2023-08-01T03:05:00;20.10;80.10
70456;DHT22;57916;51.996;5.180;2023-08-01T03:07:27;20.00;80.10
70456;DHT22;57916;51.996;5.180;2023-08-01T03:09:54;20.00;80.20
70456;DHT22;57916;51.996;5.180;2023-08-01T03:12:22;20.10;80.20
70456;DHT22;57916;51.996;5.180;2023-08-01T03:14:49;20.00;80.20
70456;DHT22;57916;51.996;5.180;2023-08-01T03:17:16;20.00;80.10
70456;DHT22;57916;51.996;5.180;2023-08-01T03:19:43;20.00;80.10
70456;DHT22;57916;51.996;5.180;2023-08-01T03:22:10;20.00;80.20
70456;DHT22;57916;51.996;5.180;2023-08-01T03:24:37;20.00;80.30
70456;DHT22;57916;51.996;5.180;2023-08-01T03:27:05;20.00;80.40
70456;DHT22;57916;51.996;5.180;2023-08-01T03:29:32;20.00;80.30
70456;DHT22;57916;51.996;5.180;2023-08-01T03:32:00;20.00;80.30
70456;DHT22;57916;51.996;5.180;2023-08-01T03:34:27;20.00;80.30
70456;DHT22;57916;51.996;5.180;2023-08-01T03:36:54;20.00;80.50
70456;DHT22;57916;51.996;5.180;2023-08-01T03:39:21;20.00;80.50
70456;DHT22;57916;51.996;5.180;2023-08-01T03:41:48;20.00;80.50
70456;DHT22;57916;51.996;5.180;2023-08-01T03:44:16;20.00;80.40
70456;DHT22;57916;51.996;5.180;2023-08-01T03:46:44;20.00;80.40
70456;DHT22;57916;51.996;5.180;2023-08-01T03:49:11;20.00;80.30
70456;DHT22;57916;51.996;5.180;2023-08-01T03:51:38;20.00;80.10
70456;DHT22;57916;51.996;5.180;2023-08-01T03:54:05;20.00;80.10
70456;DHT22;57916;51.996;5.180;2023-08-01T03:56:40;19.90;80.20
70456;DHT22;57916;51.996;5.180;2023-08-01T03:59:14;20.00;80.20
70456;DHT22;57916;51.996;5.180;2023-08-01T04:01:41;20.00;80.20
70456;DHT22;57916;51.996;5.180;2023-08-01T04:04:09;20.00;80.30
70456;DHT22;57916;51.996;5.180;2023-08-01T04:06:36;20.00;80.30
70456;DHT22;57916;51.996;5.180;2023-08-01T04:09:04;20.00;80.20
70456;DHT22;57916;51.996;5.180;2023-08-01T04:11:33;20.10;80.30
70456;DHT22;57916;51.996;5.180;2023-08-01T04:14:00;20.00;80.20
70456;DHT22;57916;51.996;5.180;2023-08-01T04:16:27;20.00;80.30
70456;DHT22;57916;51.996;5.180;2023-08-01T04:18:55;20.00;80.30
70456;DHT22;57916;51.996;5.180;2023-08-01T04:21:22;20.00;80.30
70456;DHT22;57916;51.996;5.180;2023-08-01T04:23:49;20.00;80.30
70456;DHT22;57916;51.996;5.180;2023-08-01T04:26:16;20.00;80.20
70456;DHT22;57916;51.996;5.180;2023-08-01T04:28:46;20.00;80.20
70456;DHT22;57916;51.996;5.180;2023-08-01T04:31:15;20.00;80.10
70456;DHT22;57916;51.996;5.180;2023-08-01T04:33:43;20.00;80.00
70456;DHT22;57916;51.996;5.180;2023-08-01T04:36:10;20.00;79.90
70456;DHT22;57916;51.996;5.180;2023-08-01T04:38:37;20.00;79.90
70456;DHT22;57916;51.996;5.180;2023-08-01T04:41:04;20.00;79.80
70456;DHT22;57916;51.996;5.180;2023-08-01T04:43:31;20.00;80.10
70456;DHT22;57916;51.996;5.180;2023-08-01T04:45:58;20.00;80.30
70456;DHT22;57916;51.996;5.180;2023-08-01T04:48:25;20.00;80.50
70456;DHT22;57916;51.996;5.180;2023-08-01T04:50:52;20.00;80.60
70456;DHT22;57916;51.996;5.180;2023-08-01T04:53:19;20.00;80.60
70456;DHT22;57916;51.996;5.180;2023-08-01T04:55:46;20.10;80.70
70456;DHT22;57916;51.996;5.180;2023-08-01T04:58:13;20.10;80.40
70456;DHT22;57916;51.996;5.180;2023-08-01T05:00:42;20.10;80.30
70456;DHT22;57916;51.996;5.180;2023-08-01T05:03:09;20.20;80.30
70456;DHT22;57916;51.996;5.180;2023-08-01T05:05:36;20.20;80.00
70456;DHT22;57916;51.996;5.180;2023-08-01T05:08:03;20.20;80.00
70456;DHT22;57916;51.996;5.180;2023-08-01T05:10:30;20.20;80.00
70456;DHT22;57916;51.996;5.180;2023-08-01T05:12:57;20.20;79.80
70456;DHT22;57916;51.996;5.180;2023-08-01T05:15:25;20.20;79.70
70456;DHT22;57916;51.996;5.180;2023-08-01T05:17:55;20.20;80.00
70456;DHT22;57916;51.996;5.180;2023-08-01T05:20:22;20.20;80.20
70456;DHT22;57916;51.996;5.180;2023-08-01T05:22:49;20.20;80.00
70456;DHT22;57916;51.996;5.180;2023-08-01T05:25:18;20.30;80.00
70456;DHT22;57916;51.996;5.180;2023-08-01T05:27:45;20.30;79.90
70456;DHT22;57916;51.996;5.180;2023-08-01T05:30:12;20.40;79.50
70456;DHT22;57916;51.996;5.180;2023-08-01T05:32:39;20.40;79.40
70456;DHT22;57916;51.996;5.180;2023-08-01T05:35:07;20.50;79.30
70456;DHT22;57916;51.996;5.180;2023-08-01T05:37:34;20.40;78.90
70456;DHT22;57916;51.996;5.180;2023-08-01T05:40:03;20.40;78.50
70456;DHT22;57916;51.996;5.180;2023-08-01T05:42:30;20.40;78.50
70456;DHT22;57916;51.996;5.180;2023-08-01T05:44:57;20.40;78.40
70456;DHT22;57916;51.996;5.180;2023-08-01T05:47:24;20.40;78.60
70456;DHT22;57916;51.996;5.180;2023-08-01T05:49:52;20.40;78.40
70456;DHT22;57916;51.996;5.180;2023-08-01T05:52:19;20.40;78.60
70456;DHT22;57916;51.996;5.180;2023-08-01T05:54:45;20.40;78.70
70456;DHT22;57916;51.996;5.180;2023-08-01T05:57:13;20.40;78.80
70456;DHT22;57916;51.996;5.180;2023-08-01T05:59:40;20.40;78.80
70456;DHT22;57916;51.996;5.180;2023-08-01T06:02:07;20.40;78.50
70456;DHT22;57916;51.996;5.180;2023-08-01T06:04:37;20.50;78.40
70456;DHT22;57916;51.996;5.180;2023-08-01T06:07:05;20.50;78.20
70456;DHT22;57916;51.996;5.180;2023-08-01T06:09:32;20.50;77.30
70456;DHT22;57916;51.996;5.180;2023-08-01T06:11:59;20.50;77.40
70456;DHT22;57916;51.996;5.180;2023-08-01T06:14:26;20.50;77.40
70456;DHT22;57916;51.996;5.180;2023-08-01T06:16:53;20.50;77.10
70456;DHT22;57916;51.996;5.180;2023-08-01T06:19:21;20.60;76.90
70456;DHT22;57916;51.996;5.180;2023-08-01T06:21:48;20.60;76.80
70456;DHT22;57916;51.996;5.180;2023-08-01T06:24:15;20.70;76.90
70456;DHT22;57916;51.996;5.180;2023-08-01T06:26:42;20.80;76.60
70456;DHT22;57916;51.996;5.180;2023-08-01T06:29:09;20.80;76.20
70456;DHT22;57916;51.996;5.180;2023-08-01T06:31:36;20.80;76.20
70456;DHT22;57916;51.996;5.180;2023-08-01T06:34:03;21.00;76.00
70456;DHT22;57916;51.996;5.180;2023-08-01T06:36:30;21.10;75.10
70456;DHT22;57916;51.996;5.180;2023-08-01T06:38:59;21.10;74.60
70456;DHT22;57916;51.996;5.180;2023-08-01T06:41:26;21.20;74.10
70456;DHT22;57916;51.996;5.180;2023-08-01T06:43:53;21.30;74.80
70456;DHT22;57916;51.996;5.180;2023-08-01T06:46:20;21.40;74.30
70456;DHT22;57916;51.996;5.180;2023-08-01T06:48:47;21.60;74.00
70456;DHT22;57916;51.996;5.180;2023-08-01T06:51:14;21.70;73.20
70456;DHT22;57916;51.996;5.180;2023-08-01T06:53:42;21.90;72.20
70456;DHT22;57916;51.996;5.180;2023-08-01T06:56:10;22.00;71.70
70456;DHT22;57916;51.996;5.180;2023-08-01T06:58:37;22.20;71.90
70456;DHT22;57916;51.996;5.180;2023-08-01T07:01:04;22.30;70.20
70456;DHT22;57916;51.996;5.180;2023-08-01T07:03:31;22.50;69.70
70456;DHT22;57916;51.996;5.180;2023-08-01T07:05:58;22.60;68.90
70456;DHT22;57916;51.996;5.180;2023-08-01T07:08:25;22.60;69.20
70456;DHT22;57916;51.996;5.180;2023-08-01T07:10:52;22.60;69.10
70456;DHT22;57916;51.996;5.180;2023-08-01T07:13:19;22.60;68.20
70456;DHT22;57916;51.996;5.180;2023-08-01T07:15:46;22.50;68.30
70456;DHT22;57916;51.996;5.180;2023-08-01T07:18:13;22.50;68.70
70456;DHT22;57916;51.996;5.180;2023-08-01T07:20:40;22.50;68.50
70456;DHT22;57916;51.996;5.180;2023-08-01T07:23:07;22.40;69.20
70456;DHT22;57916;51.996;5.180;2023-08-01T07:25:34;22.30;69.70
70456;DHT22;57916;51.996;5.180;2023-08-01T07:28:02;22.20;70.00
70456;DHT22;57916;51.996;5.180;2023-08-01T07:30:30;22.10;70.90
70456;DHT22;57916;51.996;5.180;2023-08-01T07:32:57;22.00;71.00
70456;DHT22;57916;51.996;5.180;2023-08-01T07:35:24;21.90;71.50
70456;DHT22;57916;51.996;5.180;2023-08-01T07:37:52;21.90;71.50
70456;DHT22;57916;51.996;5.180;2023-08-01T07:40:18;21.70;71.00
70456;DHT22;57916;51.996;5.180;2023-08-01T07:42:45;21.60;71.30
70456;DHT22;57916;51.996;5.180;2023-08-01T07:45:13;21.60;72.40
70456;DHT22;57916;51.996;5.180;2023-08-01T07:47:40;21.80;74.20
70456;DHT22;57916;51.996;5.180;2023-08-01T07:50:07;22.10;73.60
70456;DHT22;57916;51.996;5.180;2023-08-01T07:52:35;22.40;70.80
70456;DHT22;57916;51.996;5.180;2023-08-01T07:55:02;22.60;70.00
70456;DHT22;57916;51.996;5.180;2023-08-01T07:57:29;22.70;68.20
70456;DHT22;57916;51.996;5.180;2023-08-01T07:59:56;22.70;67.20
70456;DHT22;57916;51.996;5.180;2023-08-01T08:02:23;22.70;67.40
70456;DHT22;57916;51.996;5.180;2023-08-01T08:04:50;22.80;67.80
70456;DHT22;57916;51.996;5.180;2023-08-01T08:07:17;23.00;68.60
70456;DHT22;57916;51.996;5.180;2023-08-01T08:09:44;23.20;67.70
70456;DHT22;57916;51.996;5.180;2023-08-01T08:12:11;23.40;65.80
70456;DHT22;57916;51.996;5.180;2023-08-01T08:14:39;23.50;65.30
70456;DHT22;57916;51.996;5.180;2023-08-01T08:17:07;23.50;63.70
70456;DHT22;57916;51.996;5.180;2023-08-01T08:19:34;23.60;64.30
70456;DHT22;57916;51.996;5.180;2023-08-01T08:22:01;23.70;64.40
70456;DHT22;57916;51.996;5.180;2023-08-01T08:24:28;23.90;64.10
70456;DHT22;57916;51.996;5.180;2023-08-01T08:26:55;24.10;63.10
70456;DHT22;57916;51.996;5.180;2023-08-01T08:29:23;24.10;62.30
70456;DHT22;57916;51.996;5.180;2023-08-01T08:31:50;24.00;61.70
70456;DHT22;57916;51.996;5.180;2023-08-01T08:34:17;24.00;62.80
70456;DHT22;57916;51.996;5.180;2023-08-01T08:36:45;24.00;61.80
70456;DHT22;57916;51.996;5.180;2023-08-01T08:39:13;24.00;61.80
70456;DHT22;57916;51.996;5.180;2023-08-01T08:41:46;24.00;61.00
70456;DHT22;57916;51.996;5.180;2023-08-01T08:44:17;24.00;63.20
70456;DHT22;57916;51.996;5.180;2023-08-01T08:46:53;24.00;61.90
70456;DHT22;57916;51.996;5.180;2023-08-01T08:49:21;24.10;61.90
70456;DHT22;57916;51.996;5.180;2023-08-01T08:51:48;24.10;59.80
70456;DHT22;57916;51.996;5.180;2023-08-01T08:54:17;24.00;59.70
70456;DHT22;57916;51.996;5.180;2023-08-01T08:56:44;23.90;59.70
70456;DHT22;57916;51.996;5.180;2023-08-01T08:59:11;24.00;60.70
70456;DHT22;57916;51.996;5.180;2023-08-01T09:01:39;24.00;60.10
70456;DHT22;57916;51.996;5.180;2023-08-01T09:04:07;24.00;60.50
70456;DHT22;57916;51.996;5.180;2023-08-01T09:06:48;24.00;60.70
70456;DHT22;57916;51.996;5.180;2023-08-01T09:09:18;24.00;61.90
70456;DHT22;57916;51.996;5.180;2023-08-01T09:11:50;24.00;60.50
70456;DHT22;57916;51.996;5.180;2023-08-01T09:14:18;23.90;60.60
70456;DHT22;57916;51.996;5.180;2023-08-01T09:16:46;23.90;61.10
70456;DHT22;57916;51.996;5.180;2023-08-01T09:19:23;23.90;61.60
70456;DHT22;57916;51.996;5.180;2023-08-01T09:21:52;23.90;60.70
70456;DHT22;57916;51.996;5.180;2023-08-01T09:24:20;23.90;60.80
70456;DHT22;57916;51.996;5.180;2023-08-01T09:26:48;23.80;60.90
70456;DHT22;57916;51.996;5.180;2023-08-01T09:29:20;23.90;60.90
70456;DHT22;57916;51.996;5.180;2023-08-01T09:31:47;24.00;61.50
70456;DHT22;57916;51.996;5.180;2023-08-01T09:34:29;24.10;60.10
70456;DHT22;57916;51.996;5.180;2023-08-01T09:37:00;24.10;59.50
70456;DHT22;57916;51.996;5.180;2023-08-01T09:39:27;24.10;59.30
70456;DHT22;57916;51.996;5.180;2023-08-01T09:41:59;24.10;59.20
70456;DHT22;57916;51.996;5.180;2023-08-01T09:44:28;24.10;60.20
70456;DHT22;57916;51.996;5.180;2023-08-01T09:49:24;24.60;60.00
70456;DHT22;57916;51.996;5.180;2023-08-01T09:51:51;25.00;59.70
70456;DHT22;57916;51.996;5.180;2023-08-01T09:54:19;25.20;56.80
70456;DHT22;57916;51.996;5.180;2023-08-01T09:56:49;25.40;57.10
70456;DHT22;57916;51.996;5.180;2023-08-01T09:59:25;25.40;55.60
70456;DHT22;57916;51.996;5.180;2023-08-01T10:01:54;25.60;55.00
70456;DHT22;57916;51.996;5.180;2023-08-01T10:04:28;25.80;55.20
70456;DHT22;57916;51.996;5.180;2023-08-01T10:07:08;25.80;53.10
70456;DHT22;57916;51.996;5.180;2023-08-01T10:09:36;25.70;53.30
70456;DHT22;57916;51.996;5.180;2023-08-01T10:12:08;25.80;53.80
70456;DHT22;57916;51.996;5.180;2023-08-01T10:14:37;25.80;53.00
70456;DHT22;57916;51.996;5.180;2023-08-01T10:17:06;26.00;53.70
70456;DHT22;57916;51.996;5.180;2023-08-01T10:19:33;26.00;50.90
70456;DHT22;57916;51.996;5.180;2023-08-01T10:22:00;25.90;51.40
70456;DHT22;57916;51.996;5.180;2023-08-01T10:24:28;26.00;53.00
70456;DHT22;57916;51.996;5.180;2023-08-01T10:26:56;26.20;52.20
70456;DHT22;57916;51.996;5.180;2023-08-01T10:29:35;26.20;50.90
70456;DHT22;57916;51.996;5.180;2023-08-01T10:32:02;26.40;50.50
70456;DHT22;57916;51.996;5.180;2023-08-01T10:34:30;26.50;51.20
70456;DHT22;57916;51.996;5.180;2023-08-01T10:36:58;26.70;51.60
70456;DHT22;57916;51.996;5.180;2023-08-01T10:39:26;26.90;51.00
70456;DHT22;57916;51.996;5.180;2023-08-01T10:42:01;27.00;50.80
70456;DHT22;57916;51.996;5.180;2023-08-01T10:44:28;27.10;49.70
70456;DHT22;57916;51.996;5.180;2023-08-01T10:47:05;27.10;49.50
70456;DHT22;57916;51.996;5.180;2023-08-01T10:49:41;27.00;47.90
70456;DHT22;57916;51.996;5.180;2023-08-01T10:52:27;26.80;48.60
70456;DHT22;57916;51.996;5.180;2023-08-01T10:55:02;26.70;49.40
70456;DHT22;57916;51.996;5.180;2023-08-01T10:57:38;26.60;47.40
70456;DHT22;57916;51.996;5.180;2023-08-01T11:00:06;26.40;47.40
70456;DHT22;57916;51.996;5.180;2023-08-01T11:02:37;26.10;48.70
70456;DHT22;57916;51.996;5.180;2023-08-01T11:05:06;25.90;50.40
70456;DHT22;57916;51.996;5.180;2023-08-01T11:07:34;25.90;52.30
70456;DHT22;57916;51.996;5.180;2023-08-01T11:10:09;26.10;52.20
70456;DHT22;57916;51.996;5.180;2023-08-01T11:12:41;26.30;51.70
70456;DHT22;57916;51.996;5.180;2023-08-01T11:15:11;26.50;50.90
70456;DHT22;57916;51.996;5.180;2023-08-01T11:17:39;26.60;52.60
70456;DHT22;57916;51.996;5.180;2023-08-01T11:20:09;26.50;50.60
70456;DHT22;57916;51.996;5.180;2023-08-01T11:22:38;26.50;50.80
70456;DHT22;57916;51.996;5.180;2023-08-01T11:25:15;26.50;51.60
70456;DHT22;57916;51.996;5.180;2023-08-01T11:27:42;26.40;49.60
70456;DHT22;57916;51.996;5.180;2023-08-01T11:30:10;26.20;49.70
70456;DHT22;57916;51.996;5.180;2023-08-01T11:32:37;25.90;50.60
70456;DHT22;57916;51.996;5.180;2023-08-01T11:35:05;25.80;51.10
70456;DHT22;57916;51.996;5.180;2023-08-01T11:37:33;25.60;51.80
70456;DHT22;57916;51.996;5.180;2023-08-01T11:40:00;25.40;52.50
70456;DHT22;57916;51.996;5.180;2023-08-01T11:42:31;25.20;53.60
70456;DHT22;57916;51.996;5.180;2023-08-01T11:45:12;25.30;55.10
70456;DHT22;57916;51.996;5.180;2023-08-01T11:47:47;25.30;53.30
70456;DHT22;57916;51.996;5.180;2023-08-01T11:50:20;25.20;53.10
70456;DHT22;57916;51.996;5.180;2023-08-01T11:52:48;25.00;52.50
70456;DHT22;57916;51.996;5.180;2023-08-01T11:55:22;25.00;54.30
70456;DHT22;57916;51.996;5.180;2023-08-01T11:58:07;24.90;53.80
70456;DHT22;57916;51.996;5.180;2023-08-01T12:00:34;24.80;54.10
70456;DHT22;57916;51.996;5.180;2023-08-01T12:03:09;24.60;53.90
70456;DHT22;57916;51.996;5.180;2023-08-01T12:05:41;24.50;54.20
70456;DHT22;57916;51.996;5.180;2023-08-01T12:08:12;24.40;54.80
70456;DHT22;57916;51.996;5.180;2023-08-01T12:10:44;24.30;56.20
70456;DHT22;57916;51.996;5.180;2023-08-01T12:13:25;24.30;56.00
70456;DHT22;57916;51.996;5.180;2023-08-01T12:15:54;24.30;56.70
70456;DHT22;57916;51.996;5.180;2023-08-01T12:18:28;24.40;58.70
70456;DHT22;57916;51.996;5.180;2023-08-01T12:21:15;24.60;59.80
70456;DHT22;57916;51.996;5.180;2023-08-01T12:23:42;25.00;57.40
70456;DHT22;57916;51.996;5.180;2023-08-01T12:26:09;25.20;55.00
70456;DHT22;57916;51.996;5.180;2023-08-01T12:28:36;25.40;52.20
70456;DHT22;57916;51.996;5.180;2023-08-01T12:31:04;25.50;51.60
70456;DHT22;57916;51.996;5.180;2023-08-01T12:33:32;25.50;52.10
70456;DHT22;57916;51.996;5.180;2023-08-01T12:36:00;25.60;51.30
70456;DHT22;57916;51.996;5.180;2023-08-01T12:38:27;25.70;51.70
70456;DHT22;57916;51.996;5.180;2023-08-01T12:40:54;25.60;51.20
70456;DHT22;57916;51.996;5.180;2023-08-01T12:43:21;25.60;52.40
70456;DHT22;57916;51.996;5.180;2023-08-01T12:45:49;25.50;52.00
70456;DHT22;57916;51.996;5.180;2023-08-01T12:48:20;25.60;54.30
70456;DHT22;57916;51.996;5.180;2023-08-01T12:50:47;25.60;52.40
70456;DHT22;57916;51.996;5.180;2023-08-01T12:53:15;25.70;51.20
70456;DHT22;57916;51.996;5.180;2023-08-01T12:55:43;25.60;51.80
70456;DHT22;57916;51.996;5.180;2023-08-01T12:58:11;25.60;52.70
70456;DHT22;57916;51.996;5.180;2023-08-01T13:00:42;25.70;52.20
70456;DHT22;57916;51.996;5.180;2023-08-01T13:03:10;25.60;51.60
70456;DHT22;57916;51.996;5.180;2023-08-01T13:05:39;25.40;50.80
70456;DHT22;57916;51.996;5.180;2023-08-01T13:08:07;25.20;50.10
70456;DHT22;57916;51.996;5.180;2023-08-01T13:10:36;25.00;51.30
70456;DHT22;57916;51.996;5.180;2023-08-01T13:13:03;24.90;52.40
70456;DHT22;57916;51.996;5.180;2023-08-01T13:15:30;24.80;52.50
70456;DHT22;57916;51.996;5.180;2023-08-01T13:17:58;24.80;53.50
70456;DHT22;57916;51.996;5.180;2023-08-01T13:20:25;24.80;54.30
70456;DHT22;57916;51.996;5.180;2023-08-01T13:22:56;25.00;54.60
70456;DHT22;57916;51.996;5.180;2023-08-01T13:25:23;25.10;51.90
70456;DHT22;57916;51.996;5.180;2023-08-01T13:27:50;25.00;51.90
70456;DHT22;57916;51.996;5.180;2023-08-01T13:30:17;25.10;53.20
70456;DHT22;57916;51.996;5.180;2023-08-01T13:32:47;25.10;53.20
70456;DHT22;57916;51.996;5.180;2023-08-01T13:35:14;25.20;52.00
70456;DHT22;57916;51.996;5.180;2023-08-01T13:37:42;25.20;52.20
70456;DHT22;57916;51.996;5.180;2023-08-01T13:40:10;25.30;53.80
70456;DHT22;57916;51.996;5.180;2023-08-01T13:42:38;25.30;52.20
70456;DHT22;57916;51.996;5.180;2023-08-01T13:45:06;25.30;52.20
70456;DHT22;57916;51.996;5.180;2023-08-01T13:47:33;25.30;52.70
70456;DHT22;57916;51.996;5.180;2023-08-01T13:50:00;25.20;51.10
70456;DHT22;57916;51.996;5.180;2023-08-01T13:52:28;25.10;49.60
70456;DHT22;57916;51.996;5.180;2023-08-01T13:54:55;25.10;50.00
70456;DHT22;57916;51.996;5.180;2023-08-01T13:57:22;24.90;49.70
70456;DHT22;57916;51.996;5.180;2023-08-01T13:59:50;24.80;49.90
70456;DHT22;57916;51.996;5.180;2023-08-01T14:02:37;24.60;50.60
70456;DHT22;57916;51.996;5.180;2023-08-01T14:05:04;24.50;52.30
70456;DHT22;57916;51.996;5.180;2023-08-01T14:07:34;24.40;52.50
70456;DHT22;57916;51.996;5.180;2023-08-01T14:10:01;24.30;53.20
70456;DHT22;57916;51.996;5.180;2023-08-01T14:12:28;24.30;53.30
70456;DHT22;57916;51.996;5.180;2023-08-01T14:14:55;24.10;53.40
70456;DHT22;57916;51.996;5.180;2023-08-01T14:17:22;24.10;53.60
70456;DHT22;57916;51.996;5.180;2023-08-01T14:19:49;24.00;53.40
70456;DHT22;57916;51.996;5.180;2023-08-01T14:22:16;23.90;53.50
70456;DHT22;57916;51.996;5.180;2023-08-01T14:24:43;23.90;53.90
70456;DHT22;57916;51.996;5.180;2023-08-01T14:27:10;23.90;53.80
70456;DHT22;57916;51.996;5.180;2023-08-01T14:29:37;23.90;54.00
70456;DHT22;57916;51.996;5.180;2023-08-01T14:32:05;24.00;55.30
70456;DHT22;57916;51.996;5.180;2023-08-01T14:34:32;24.10;54.60
70456;DHT22;57916;51.996;5.180;2023-08-01T14:36:59;24.10;55.00
70456;DHT22;57916;51.996;5.180;2023-08-01T14:39:26;24.20;54.30
70456;DHT22;57916;51.996;5.180;2023-08-01T14:41:53;24.20;54.90
70456;DHT22;57916;51.996;5.180;2023-08-01T14:44:31;24.30;55.30
70456;DHT22;57916;51.996;5.180;2023-08-01T14:46:58;24.40;55.80
70456;DHT22;57916;51.996;5.180;2023-08-01T14:49:25;24.50;54.80
70456;DHT22;57916;51.996;5.180;2023-08-01T14:51:54;24.50;53.80
70456;DHT22;57916;51.996;5.180;2023-08-01T14:54:22;24.50;52.30
70456;DHT22;57916;51.996;5.180;2023-08-01T14:57:05;24.40;53.10
70456;DHT22;57916;51.996;5.180;2023-08-01T14:59:32;24.30;53.50
70456;DHT22;57916;51.996;5.180;2023-08-01T15:01:59;24.30;53.70
70456;DHT22;57916;51.996;5.180;2023-08-01T15:04:27;24.20;54.20
70456;DHT22;57916;51.996;5.180;2023-08-01T15:06:54;24.30;55.00
70456;DHT22;57916;51.996;5.180;2023-08-01T15:09:22;24.30;55.50
70456;DHT22;57916;51.996;5.180;2023-08-01T15:11:49;24.30;54.10
70456;DHT22;57916;51.996;5.180;2023-08-01T15:14:16;24.20;52.70
70456;DHT22;57916;51.996;5.180;2023-08-01T15:16:43;24.10;52.50
70456;DHT22;57916;51.996;5.180;2023-08-01T15:19:10;24.10;53.30
70456;DHT22;57916;51.996;5.180;2023-08-01T15:21:37;24.00;54.00
70456;DHT22;57916;51.996;5.180;2023-08-01T15:24:05;23.90;54.40
70456;DHT22;57916;51.996;5.180;2023-08-01T15:26:32;23.80;53.90
70456;DHT22;57916;51.996;5.180;2023-08-01T15:28:59;23.70;54.30
70456;DHT22;57916;51.996;5.180;2023-08-01T15:31:26;23.60;55.40
70456;DHT22;57916;51.996;5.180;2023-08-01T15:33:53;23.40;57.70
70456;DHT22;57916;51.996;5.180;2023-08-01T15:36:27;23.30;60.00
70456;DHT22;57916;51.996;5.180;2023-08-01T15:38:56;23.20;60.20